Time;durP1;ratioP1;P1;durP2;ratioP2;P2;SDS_P1;SDS_P2;PMS_P1;PMS_P2;Temp;Humidity;BMP_temperature;BMP_pressure;BME280_temperature;BME280_humidity;BME280_pressure;Samples;Min_cycle;Max_cycle;Signal;HPM_P1;HPM_P2
2020/12/17 00:00:26;;;;;;;16.08;9.20;;;9.00;55.30;;;;;;5051146;28;20074;-74
2020/12/17 00:02:52;;;;;;;15.43;9.18;;;9.00;55.30;;;;;;5052212;28;20021;-71
2020/12/17 00:05:18;;;;;;;16.92;9.13;;;9.00;55.20;;;;;;5051088;28;20031;-76
2020/12/17 00:07:44;;;;;;;17.60;10.20;;;9.00;55.20;;;;;;5053094;28;20025;-74
2020/12/17 00:10:12;;;;;;;15.68;9.00;;;9.00;55.10;;;;;;5051304;28;20834;-73
2020/12/17 00:12:42;;;;;;;13.98;8.57;;;9.00;55.10;;;;;;5050865;28;20025;-73
2020/12/17 00:15:10;;;;;;;13.70;8.32;;;9.00;55.00;;;;;;5052420;28;20032;-76
2020/12/17 00:17:44;;;;;;;14.38;8.68;;;9.00;54.90;;;;;;5052412;28;20029;-73
2020/12/17 00:20:11;;;;;;;18.70;9.10;;;9.00;55.00;;;;;;5052530;28;20025;-73
2020/12/17 00:22:39;;;;;;;15.18;8.20;;;9.00;54.90;;;;;;5056076;28;20029;-73
2020/12/17 00:25:06;;;;;;;16.08;9.00;;;9.00;55.00;;;;;;5052253;28;20402;-72
2020/12/17 00:27:32;;;;;;;18.48;9.52;;;9.00;55.60;;;;;;5051171;28;20075;-76
2020/12/17 00:29:59;;;;;;;16.05;9.30;;;9.00;54.90;;;;;;5052238;28;20375;-75
2020/12/17 00:32:25;;;;;;;15.25;9.55;;;9.00;54.90;;;;;;5052094;28;20505;-74
2020/12/17 00:34:51;;;;;;;14.00;8.48;;;9.00;54.90;;;;;;5052271;28;20025;-74
2020/12/17 00:37:17;;;;;;;18.13;9.75;;;9.00;55.00;;;;;;5052209;28;20033;-72
2020/12/17 00:39:44;;;;;;;16.42;9.07;;;9.00;55.00;;;;;;5052333;28;20028;-76
2020/12/17 00:42:11;;;;;;;17.63;9.60;;;9.00;55.00;;;;;;5051993;28;20025;-72
2020/12/17 00:44:36;;;;;;;16.10;9.32;;;9.00;55.00;;;;;;5052292;28;20032;-72
2020/12/17 00:47:03;;;;;;;17.42;9.70;;;9.00;55.10;;;;;;5052343;28;20025;-74
2020/12/17 00:49:28;;;;;;;19.08;9.93;;;9.00;55.00;;;;;;5061818;28;20494;-74
2020/12/17 00:51:59;;;;;;;16.48;8.90;;;9.00;55.10;;;;;;5044025;28;20048;-71
2020/12/17 00:54:25;;;;;;;12.80;7.68;;;9.00;55.10;;;;;;5051464;28;20021;-75
2020/12/17 00:56:50;;;;;;;13.27;8.30;;;9.00;55.10;;;;;;5051007;28;20842;-73
2020/12/17 00:59:16;;;;;;;14.85;8.40;;;9.00;55.00;;;;;;5052194;28;20021;-74
2020/12/17 01:01:42;;;;;;;14.68;8.25;;;9.00;54.90;;;;;;5052426;28;20025;-74
2020/12/17 01:04:07;;;;;;;13.85;7.70;;;9.00;54.90;;;;;;5056184;28;20051;-72
2020/12/17 01:06:33;;;;;;;13.48;8.43;;;9.00;54.90;;;;;;5056036;28;20060;-75
2020/12/17 01:08:59;;;;;;;13.18;7.97;;;9.00;54.80;;;;;;5055951;28;20047;-74
2020/12/17 01:11:29;;;;;;;16.10;9.23;;;9.00;54.80;;;;;;5056247;28;20417;-75
2020/12/17 01:13:57;;;;;;;21.02;10.52;;;9.00;54.50;;;;;;5055631;28;20390;-76
2020/12/17 01:16:23;;;;;;;25.52;14.32;;;9.00;54.50;;;;;;5054370;28;20033;-77
2020/12/17 01:18:49;;;;;;;21.95;11.30;;;9.00;54.50;;;;;;5055655;28;20029;-77
2020/12/17 01:21:16;;;;;;;14.98;9.10;;;9.00;54.30;;;;;;5054318;28;20023;-75
2020/12/17 01:23:42;;;;;;;13.38;8.07;;;9.00;54.30;;;;;;5055444;28;20424;-76
2020/12/17 01:26:09;;;;;;;13.15;7.88;;;8.90;54.10;;;;;;5054358;28;20036;-72
2020/12/17 01:28:36;;;;;;;10.68;7.35;;;9.00;54.30;;;;;;5072353;28;20477;-73
2020/12/17 01:31:06;;;;;;;14.20;8.77;;;9.00;54.40;;;;;;5075581;28;20470;-75
2020/12/17 01:33:32;;;;;;;15.63;9.15;;;8.90;54.30;;;;;;5075578;28;20059;-73
2020/12/17 01:36:07;;;;;;;12.65;8.25;;;8.90;54.40;;;;;;5075600;28;20016;-74
2020/12/17 01:38:34;;;;;;;12.30;8.13;;;8.90;54.40;;;;;;5073602;28;20057;-75
2020/12/17 01:41:00;;;;;;;12.00;7.18;;;8.90;54.20;;;;;;5057494;28;20509;-74
2020/12/17 01:43:26;;;;;;;10.25;6.57;;;8.90;54.20;;;;;;5035292;28;20040;-73
2020/12/17 01:45:53;;;;;;;10.90;7.13;;;8.90;54.20;;;;;;5050618;28;20026;-72
2020/12/17 01:48:19;;;;;;;10.48;6.20;;;8.90;54.10;;;;;;5035164;28;20032;-75
2020/12/17 01:50:47;;;;;;;11.35;6.68;;;8.90;53.90;;;;;;5039135;28;20099;-74
2020/12/17 01:53:13;;;;;;;14.25;8.00;;;8.90;54.00;;;;;;5054918;28;20028;-72
2020/12/17 01:55:40;;;;;;;11.02;6.97;;;8.90;54.10;;;;;;5055001;28;20032;-73
2020/12/17 01:58:10;;;;;;;11.73;6.82;;;8.90;54.10;;;;;;5054957;28;20028;-74
2020/12/17 02:00:37;;;;;;;10.65;6.43;;;8.90;54.10;;;;;;5053737;28;20036;-74
2020/12/17 02:03:07;;;;;;;9.95;6.47;;;8.90;54.10;;;;;;5054953;28;20070;-72
2020/12/17 02:05:33;;;;;;;10.35;6.70;;;8.90;54.00;;;;;;5054434;28;20474;-74
2020/12/17 02:08:00;;;;;;;10.25;6.50;;;8.90;54.10;;;;;;5035694;28;20506;-74
2020/12/17 02:10:28;;;;;;;10.32;6.78;;;8.90;54.20;;;;;;5033086;28;20021;-74
2020/12/17 02:12:54;;;;;;;18.08;6.63;;;8.90;54.10;;;;;;5033442;28;20033;-73
2020/12/17 02:15:21;;;;;;;9.20;5.95;;;8.90;54.00;;;;;;5033971;28;20030;-76
2020/12/17 02:17:49;;;;;;;9.25;5.82;;;8.90;53.90;;;;;;5034294;28;20032;-75
2020/12/17 02:20:16;;;;;;;10.55;6.60;;;8.90;54.00;;;;;;5042846;28;20025;-72
2020/12/17 02:22:42;;;;;;;10.30;6.40;;;8.90;54.00;;;;;;5074463;28;20094;-73
2020/12/17 02:25:11;;;;;;;10.18;6.28;;;8.80;54.00;;;;;;5074253;28;20048;-74
2020/12/17 02:27:37;;;;;;;10.65;6.40;;;8.80;54.10;;;;;;5074476;28;20111;-72
2020/12/17 02:30:06;;;;;;;14.15;6.82;;;8.90;54.10;;;;;;5074348;28;20512;-72
2020/12/17 02:32:32;;;;;;;10.95;6.75;;;8.90;54.10;;;;;;5072998;28;20028;-74
2020/12/17 02:34:58;;;;;;;10.77;6.75;;;8.80;53.80;;;;;;5072286;28;20032;-74
2020/12/17 02:37:23;;;;;;;30.40;9.55;;;8.80;53.70;;;;;;5054129;28;20057;-74
2020/12/17 02:39:49;;;;;;;16.23;6.38;;;8.80;53.80;;;;;;5061839;28;20028;-73
2020/12/17 02:42:15;;;;;;;13.90;6.20;;;8.80;54.00;;;;;;5050528;28;20024;-72
2020/12/17 02:44:41;;;;;;;14.77;7.18;;;8.80;54.10;;;;;;5034172;28;20018;-73
2020/12/17 02:47:07;;;;;;;11.50;6.18;;;8.80;54.10;;;;;;5034070;28;20494;-73
2020/12/17 02:49:32;;;;;;;10.95;6.40;;;8.80;54.20;;;;;;5034048;28;20033;-75
2020/12/17 02:51:58;;;;;;;11.18;6.57;;;8.80;54.10;;;;;;5035785;28;20516;-72
2020/12/17 02:54:24;;;;;;;10.32;6.45;;;8.80;54.10;;;;;;5052659;28;20031;-72
2020/12/17 02:56:49;;;;;;;10.10;6.25;;;8.80;54.10;;;;;;5053690;28;20470;-75
2020/12/17 02:59:15;;;;;;;12.70;7.72;;;8.80;54.10;;;;;;5053812;28;20057;-73
2020/12/17 03:01:41;;;;;;;16.08;9.05;;;8.70;54.10;;;;;;5052541;28;20474;-74
2020/12/17 03:04:06;;;;;;;14.05;8.13;;;8.70;54.20;;;;;;5053796;28;20036;-75
2020/12/17 03:06:32;;;;;;;14.55;7.60;;;8.70;54.30;;;;;;5068938;28;20029;-73
2020/12/17 03:08:58;;;;;;;13.05;7.68;;;8.70;54.40;;;;;;5053555;28;20086;-73
2020/12/17 03:11:23;;;;;;;15.30;7.95;;;8.70;54.40;;;;;;5053677;28;20103;-76
2020/12/17 03:13:49;;;;;;;13.98;8.52;;;8.70;54.40;;;;;;5053599;28;20472;-72
2020/12/17 03:16:15;;;;;;;14.05;7.60;;;8.70;54.40;;;;;;5053357;28;20032;-77
2020/12/17 03:18:41;;;;;;;11.57;7.47;;;8.70;54.40;;;;;;5053525;28;20094;-77
2020/12/17 03:21:06;;;;;;;12.32;7.63;;;8.70;54.50;;;;;;5052113;28;20087;-74
2020/12/17 03:23:32;;;;;;;11.63;6.50;;;8.70;54.30;;;;;;5053336;28;20104;-73
2020/12/17 03:25:58;;;;;;;12.15;6.78;;;8.80;54.30;;;;;;5052584;28;20265;-74
2020/12/17 03:28:24;;;;;;;10.93;6.72;;;8.70;54.20;;;;;;5053619;28;20052;-75
2020/12/17 03:30:49;;;;;;;13.63;7.28;;;8.80;54.30;;;;;;5053280;28;20029;-73
2020/12/17 03:33:15;;;;;;;14.35;7.47;;;8.70;54.20;;;;;;5063590;28;20095;-75
2020/12/17 03:35:41;;;;;;;13.43;7.78;;;8.80;54.40;;;;;;5071843;28;20522;-72
2020/12/17 03:38:07;;;;;;;16.60;8.82;;;8.70;54.30;;;;;;5056375;28;20021;-74
2020/12/17 03:40:33;;;;;;;13.23;7.47;;;8.80;54.40;;;;;;5053195;28;20079;-73
2020/12/17 03:42:59;;;;;;;16.30;8.98;;;8.70;54.40;;;;;;5035394;28;20463;-73
2020/12/17 03:45:24;;;;;;;14.57;8.27;;;8.80;54.50;;;;;;5033337;28;20034;-75
2020/12/17 03:47:50;;;;;;;11.88;6.95;;;8.80;54.40;;;;;;5031699;28;20033;-73
2020/12/17 03:50:16;;;;;;;14.13;8.43;;;8.70;54.40;;;;;;5033001;28;20061;-72
2020/12/17 03:52:42;;;;;;;13.52;7.95;;;8.80;54.40;;;;;;5062776;28;20029;-72
2020/12/17 03:55:07;;;;;;;11.98;7.18;;;8.70;54.20;;;;;;5052809;28;20452;-72
2020/12/17 03:57:33;;;;;;;11.00;6.15;;;8.70;54.20;;;;;;5051434;28;20621;-74
2020/12/17 03:59:59;;;;;;;11.95;7.40;;;8.70;54.30;;;;;;5052757;28;20021;-73
2020/12/17 04:02:25;;;;;;;16.02;6.63;;;8.70;54.30;;;;;;5051398;28;20029;-72
2020/12/17 04:04:51;;;;;;;14.60;8.50;;;8.80;54.40;;;;;;5052662;28;20036;-75
2020/12/17 04:07:16;;;;;;;18.70;8.75;;;8.80;54.40;;;;;;5045876;28;20029;-74
2020/12/17 04:09:43;;;;;;;16.55;9.20;;;8.70;54.40;;;;;;5051273;28;20025;-72
2020/12/17 04:12:09;;;;;;;13.98;8.30;;;8.80;54.60;;;;;;5051272;28;20080;-77
2020/12/17 04:14:35;;;;;;;17.00;9.63;;;8.80;54.70;;;;;;5052014;28;20025;-75
2020/12/17 04:17:02;;;;;;;15.95;8.82;;;8.80;54.80;;;;;;5051717;28;20035;-72
2020/12/17 04:19:28;;;;;;;15.77;9.18;;;8.80;54.80;;;;;;5052524;28;20021;-73
2020/12/17 04:21:54;;;;;;;16.27;9.40;;;8.80;54.90;;;;;;5052340;28;20043;-75
2020/12/17 04:24:19;;;;;;;16.77;9.52;;;8.80;54.90;;;;;;5052251;28;20047;-73
2020/12/17 04:26:52;;;;;;;16.13;9.32;;;8.80;54.90;;;;;;5052367;28;20056;-75
2020/12/17 04:29:18;;;;;;;18.67;9.32;;;8.90;55.00;;;;;;5052563;28;20026;-75
2020/12/17 04:31:44;;;;;;;15.02;8.38;;;8.90;54.90;;;;;;5065767;28;20034;-73
2020/12/17 04:34:10;;;;;;;16.60;9.32;;;8.90;54.90;;;;;;5072533;28;20066;-76
2020/12/17 04:36:37;;;;;;;18.23;9.07;;;8.90;55.00;;;;;;5060368;28;20021;-75
2020/12/17 04:39:04;;;;;;;16.75;10.27;;;8.90;54.90;;;;;;5056592;28;20025;-73
2020/12/17 04:41:31;;;;;;;18.90;10.45;;;8.90;54.90;;;;;;5051031;28;20022;-75
2020/12/17 04:43:58;;;;;;;20.20;10.30;;;8.90;54.90;;;;;;5036803;28;20018;-74
2020/12/17 04:46:26;;;;;;;17.30;9.65;;;8.90;54.90;;;;;;5036711;28;20025;-75
2020/12/17 04:48:53;;;;;;;17.50;9.98;;;8.90;54.90;;;;;;5036625;28;20030;-74
2020/12/17 04:51:20;;;;;;;23.85;13.93;;;8.90;54.90;;;;;;5036600;28;20022;-75
2020/12/17 04:53:48;;;;;;;29.60;15.65;;;8.90;55.00;;;;;;5056034;28;20033;-76
2020/12/17 04:56:17;;;;;;;19.80;12.65;;;8.90;55.10;;;;;;5056172;28;20466;-74
2020/12/17 04:58:45;;;;;;;21.75;11.95;;;8.90;55.10;;;;;;5054853;28;20363;-73
2020/12/17 05:01:14;;;;;;;19.20;11.20;;;8.90;55.10;;;;;;5055980;28;20073;-73
2020/12/17 05:03:45;;;;;;;20.08;10.88;;;8.90;55.10;;;;;;5055912;28;20025;-74
2020/12/17 05:06:16;;;;;;;22.17;12.23;;;8.90;55.10;;;;;;5055791;28;20079;-75
2020/12/17 05:08:41;;;;;;;24.42;12.32;;;8.90;55.10;;;;;;5055860;28;20024;-72
2020/12/17 05:11:07;;;;;;;21.05;10.50;;;8.90;55.20;;;;;;5056051;28;20378;-76
2020/12/17 05:13:33;;;;;;;20.45;10.60;;;8.90;55.20;;;;;;5055665;28;20074;-75
2020/12/17 05:15:58;;;;;;;20.55;11.18;;;8.90;55.30;;;;;;5055796;28;20033;-75
2020/12/17 05:18:24;;;;;;;26.83;12.18;;;8.90;55.20;;;;;;5055597;28;20530;-76
2020/12/17 05:20:50;;;;;;;16.45;9.38;;;8.80;55.30;;;;;;5054310;28;20060;-75
2020/12/17 05:23:16;;;;;;;20.83;10.75;;;8.90;55.40;;;;;;5054281;28;20386;-75
2020/12/17 05:25:42;;;;;;;21.15;11.48;;;8.80;55.40;;;;;;5055481;28;20056;-73
2020/12/17 05:28:07;;;;;;;27.70;11.77;;;8.80;55.40;;;;;;5055400;28;20021;-74
2020/12/17 05:30:34;;;;;;;19.05;10.63;;;8.80;55.40;;;;;;5055987;28;20493;-76
2020/12/17 05:33:02;;;;;;;22.25;12.02;;;8.80;55.50;;;;;;5055471;28;20025;-75
2020/12/17 05:35:33;;;;;;;19.88;10.63;;;8.80;55.50;;;;;;5055344;28;20039;-76
2020/12/17 05:38:06;;;;;;;24.17;10.70;;;8.80;55.50;;;;;;5054102;28;20120;-73
2020/12/17 05:40:42;;;;;;;21.63;11.07;;;8.80;55.50;;;;;;5053963;28;20048;-74
2020/12/17 05:43:09;;;;;;;17.85;9.45;;;8.80;55.50;;;;;;5050807;28;20360;-77
2020/12/17 05:45:36;;;;;;;18.95;10.27;;;8.80;56.10;;;;;;5035274;28;20021;-73
2020/12/17 05:48:16;;;;;;;19.20;10.35;;;8.80;55.60;;;;;;5041998;28;20506;-73
2020/12/17 05:50:53;;;;;;;19.17;10.15;;;8.80;55.60;;;;;;5055005;28;20106;-74
2020/12/17 05:53:20;;;;;;;19.02;10.45;;;8.80;55.50;;;;;;5055059;28;20111;-76
2020/12/17 05:55:50;;;;;;;21.38;10.65;;;8.80;55.50;;;;;;5053673;28;20036;-75
2020/12/17 05:58:16;;;;;;;18.20;9.23;;;8.80;56.00;;;;;;5054830;28;20074;-74
2020/12/17 06:00:42;;;;;;;18.10;10.27;;;8.80;55.40;;;;;;5054970;28;20049;-73
2020/12/17 06:03:12;;;;;;;19.35;10.40;;;8.80;55.50;;;;;;5055017;28;20386;-74
2020/12/17 06:05:44;;;;;;;18.75;9.82;;;8.80;55.50;;;;;;5054795;28;20519;-75
2020/12/17 06:08:17;;;;;;;19.55;10.73;;;8.80;55.60;;;;;;5054717;28;20025;-73
2020/12/17 06:10:48;;;;;;;16.55;9.15;;;8.80;55.60;;;;;;5054937;28;20047;-76
2020/12/17 06:13:15;;;;;;;17.50;9.65;;;8.80;55.60;;;;;;5047050;28;20029;-73
2020/12/17 06:15:46;;;;;;;17.75;10.00;;;8.80;55.60;;;;;;5034948;28;20372;-75
2020/12/17 06:18:13;;;;;;;17.25;9.43;;;8.80;55.60;;;;;;5034609;28;20531;-77
2020/12/17 06:20:43;;;;;;;18.98;10.00;;;8.80;55.60;;;;;;5034505;28;20064;-74
2020/12/17 06:23:13;;;;;;;21.40;11.30;;;8.80;55.60;;;;;;5047318;28;20035;-76
2020/12/17 06:25:39;;;;;;;19.67;9.75;;;8.80;55.60;;;;;;5054299;28;20041;-76
2020/12/17 06:28:14;;;;;;;21.98;12.60;;;8.80;55.60;;;;;;5052920;28;20033;-75
2020/12/17 06:30:44;;;;;;;18.02;10.52;;;8.80;55.60;;;;;;5055632;28;20031;-73
2020/12/17 06:33:12;;;;;;;17.52;9.90;;;8.80;55.60;;;;;;5065488;28;20025;-74
2020/12/17 06:35:42;;;;;;;19.00;10.02;;;8.80;55.60;;;;;;5054223;28;20029;-75
2020/12/17 06:38:10;;;;;;;20.75;11.77;;;8.70;55.60;;;;;;5054105;28;20088;-72
2020/12/17 06:40:36;;;;;;;20.83;10.02;;;8.80;55.70;;;;;;5054124;28;20489;-73
2020/12/17 06:43:03;;;;;;;17.27;9.85;;;8.70;55.70;;;;;;5052890;28;20519;-72
2020/12/17 06:45:34;;;;;;;20.10;10.82;;;8.70;55.80;;;;;;5054093;28;20036;-75
2020/12/17 06:48:40;;;;;;;17.02;9.80;;;8.70;55.80;;;;;;5053994;28;20021;-72
2020/12/17 06:51:42;;;;;;;19.27;9.48;;;8.70;55.80;;;;;;5052506;28;20486;-71
2020/12/17 06:54:28;;;;;;;25.75;11.70;;;8.70;55.80;;;;;;5012078;28;20034;-73
2020/12/17 06:57:16;;;;;;;20.83;11.98;;;8.70;55.70;;;;;;5011815;28;20042;-74
2020/12/17 07:00:04;;;;;;;21.05;10.60;;;8.70;55.80;;;;;;5010995;28;20076;-74
2020/12/17 07:02:40;;;;;;;18.17;10.65;;;8.80;55.80;;;;;;4995071;28;20030;-73
2020/12/17 07:05:06;;;;;;;22.25;12.05;;;8.70;55.70;;;;;;5011834;28;20026;-75
2020/12/17 07:07:44;;;;;;;16.58;10.07;;;8.80;55.80;;;;;;5011796;28;20069;-73
2020/12/17 07:10:31;;;;;;;15.05;8.90;;;8.80;55.90;;;;;;5011825;28;20026;-71
2020/12/17 07:12:57;;;;;;;24.98;12.85;;;8.80;55.80;;;;;;5011474;28;20029;-72
2020/12/17 07:15:30;;;;;;;19.02;11.32;;;8.80;55.80;;;;;;5011614;28;20065;-75
2020/12/17 07:18:20;;;;;;;20.60;11.25;;;8.80;55.80;;;;;;5011114;28;20040;-75
2020/12/17 07:20:51;;;;;;;19.38;10.30;;;8.80;55.70;;;;;;5011553;28;20038;-74
2020/12/17 07:23:16;;;;;;;18.05;10.10;;;8.80;55.80;;;;;;5011567;28;20045;-73
2020/12/17 07:25:43;;;;;;;22.48;11.18;;;8.80;55.80;;;;;;5011283;28;20448;-74
2020/12/17 07:28:14;;;;;;;17.90;10.18;;;8.90;55.80;;;;;;5033346;28;20041;-72
2020/12/17 07:30:49;;;;;;;18.10;9.80;;;8.90;55.80;;;;;;5053011;28;20024;-76
2020/12/17 07:33:38;;;;;;;17.90;9.45;;;8.90;55.80;;;;;;5033089;28;20026;-75
2020/12/17 07:36:08;;;;;;;20.42;10.85;;;8.90;55.80;;;;;;5032970;28;20029;-77
2020/12/17 07:38:34;;;;;;;21.88;12.20;;;8.90;55.80;;;;;;5043586;28;20041;-76
2020/12/17 07:41:00;;;;;;;27.80;12.63;;;8.90;55.80;;;;;;5053038;28;20023;-74
2020/12/17 07:43:46;;;;;;;21.98;12.02;;;8.90;55.80;;;;;;5050956;28;20016;-75
2020/12/17 07:46:11;;;;;;;19.50;10.82;;;8.90;55.80;;;;;;5032874;28;20025;-74
2020/12/17 07:48:54;;;;;;;21.67;11.40;;;8.90;55.90;;;;;;5048296;28;20505;-74
2020/12/17 07:51:28;;;;;;;23.80;12.73;;;8.90;55.90;;;;;;5032916;28;20427;-72
2020/12/17 07:53:54;;;;;;;22.92;12.27;;;8.90;55.90;;;;;;5032974;28;20571;-75
2020/12/17 07:56:21;;;;;;;25.65;12.85;;;8.90;55.90;;;;;;5032707;28;20108;-76
2020/12/17 07:58:49;;;;;;;24.83;14.10;;;8.90;56.00;;;;;;5048097;28;20018;-76
2020/12/17 08:01:15;;;;;;;20.60;11.02;;;8.90;56.00;;;;;;5048088;28;20437;-73
2020/12/17 08:03:49;;;;;;;27.50;12.73;;;8.90;56.10;;;;;;5048050;28;20116;-74
2020/12/17 08:06:24;;;;;;;26.27;13.63;;;8.80;56.20;;;;;;5032712;28;20097;-75
2020/12/17 08:08:59;;;;;;;23.85;11.88;;;8.80;56.10;;;;;;5048009;28;20438;-75
2020/12/17 08:11:25;;;;;;;24.25;12.20;;;8.80;56.10;;;;;;5032429;28;20071;-75
2020/12/17 08:14:07;;;;;;;25.98;13.02;;;8.80;56.40;;;;;;5055706;28;20025;-76
2020/12/17 08:16:34;;;;;;;24.75;13.55;;;8.80;56.20;;;;;;5032267;28;20076;-72
2020/12/17 08:19:01;;;;;;;23.00;12.88;;;8.80;56.20;;;;;;5032420;28;20056;-75
2020/12/17 08:21:28;;;;;;;26.73;11.63;;;8.80;56.20;;;;;;5056595;28;20031;-74
2020/12/17 08:23:54;;;;;;;21.95;11.95;;;8.80;56.30;;;;;;5072230;28;20016;-74
2020/12/17 08:26:23;;;;;;;22.25;12.30;;;8.80;56.40;;;;;;5072330;28;20021;-73
2020/12/17 08:28:50;;;;;;;22.25;12.70;;;8.80;56.50;;;;;;5072214;28;20036;-76
2020/12/17 08:31:19;;;;;;;26.20;12.85;;;8.80;56.50;;;;;;5054614;28;20028;-73
2020/12/17 08:34:07;;;;;;;19.92;11.18;;;8.80;56.40;;;;;;5052268;28;20029;-76
2020/12/17 08:36:37;;;;;;;18.80;10.48;;;8.80;56.40;;;;;;5051834;28;20037;-73
2020/12/17 08:39:10;;;;;;;26.65;13.15;;;8.80;56.30;;;;;;5071800;28;20359;-75
2020/12/17 08:41:45;;;;;;;26.95;12.70;;;8.80;56.40;;;;;;5071079;28;20432;-76
2020/12/17 08:44:12;;;;;;;25.02;12.68;;;8.80;56.40;;;;;;5064239;28;20028;-75
2020/12/17 08:46:45;;;;;;;23.23;11.43;;;8.90;56.40;;;;;;5052230;28;20021;-74
2020/12/17 08:49:12;;;;;;;22.20;11.47;;;8.80;56.40;;;;;;5052255;28;20108;-75
2020/12/17 08:51:43;;;;;;;22.55;11.32;;;8.80;56.40;;;;;;5052448;28;20273;-73
2020/12/17 08:54:09;;;;;;;19.05;10.75;;;8.80;56.50;;;;;;5052449;28;20025;-76
2020/12/17 08:56:35;;;;;;;21.90;11.80;;;8.90;56.50;;;;;;5050805;28;20025;-75
2020/12/17 08:59:05;;;;;;;21.77;11.50;;;8.90;56.50;;;;;;5052134;28;20052;-74
2020/12/17 09:01:41;;;;;;;24.08;11.95;;;8.90;56.50;;;;;;5052009;28;20505;-74
2020/12/17 09:04:08;;;;;;;26.65;13.13;;;8.90;56.50;;;;;;5050795;28;20551;-74
2020/12/17 09:06:35;;;;;;;23.83;12.50;;;8.90;56.50;;;;;;5051898;28;20025;-76
2020/12/17 09:09:15;;;;;;;23.60;12.55;;;8.90;56.50;;;;;;5051962;28;20171;-77
2020/12/17 09:11:47;;;;;;;22.45;11.80;;;8.90;56.50;;;;;;5050734;28;20471;-75
2020/12/17 09:14:19;;;;;;;25.15;12.02;;;8.90;56.50;;;;;;5050273;28;20485;-74
2020/12/17 09:16:46;;;;;;;26.08;13.00;;;8.90;56.50;;;;;;5030631;28;20109;-75
2020/12/17 09:19:12;;;;;;;22.08;11.20;;;9.00;56.50;;;;;;5032011;28;20503;-75
2020/12/17 09:21:58;;;;;;;23.23;11.63;;;9.00;56.40;;;;;;5031882;28;20061;-75
2020/12/17 09:24:32;;;;;;;28.05;12.73;;;9.00;56.40;;;;;;5073490;28;20401;-75
2020/12/17 09:27:13;;;;;;;30.90;13.70;;;9.00;56.30;;;;;;5075400;28;20077;-78
2020/12/17 09:29:39;;;;;;;23.65;11.15;;;9.00;56.30;;;;;;5059899;28;20537;-77
2020/12/17 09:32:17;;;;;;;22.40;12.50;;;9.00;56.30;;;;;;5058292;28;20048;-77
2020/12/17 09:34:43;;;;;;;20.60;10.90;;;9.00;56.30;;;;;;5054842;28;20021;-77
2020/12/17 09:37:12;;;;;;;21.10;11.38;;;9.00;56.30;;;;;;5055213;28;20032;-74
2020/12/17 09:39:44;;;;;;;27.45;12.35;;;9.10;56.30;;;;;;5046710;28;20076;-75
2020/12/17 09:42:16;;;;;;;25.48;11.95;;;9.10;56.20;;;;;;5049719;28;20040;-76
2020/12/17 09:44:43;;;;;;;22.70;12.10;;;9.10;56.20;;;;;;5044468;28;20096;-75
2020/12/17 09:47:09;;;;;;;22.73;11.35;;;9.20;56.30;;;;;;5053350;28;20033;-73
2020/12/17 09:49:37;;;;;;;23.70;11.30;;;9.20;56.30;;;;;;5053092;28;20032;-76
2020/12/17 09:52:13;;;;;;;20.50;11.32;;;9.20;56.30;;;;;;5057818;28;20028;-74
2020/12/17 09:54:43;;;;;;;22.77;12.48;;;9.30;56.30;;;;;;5054936;28;20025;-74
2020/12/17 09:57:10;;;;;;;21.83;12.25;;;9.40;56.20;;;;;;5055463;28;20024;-74
2020/12/17 09:59:36;;;;;;;24.52;12.82;;;9.40;56.10;;;;;;5056802;28;20021;-75
2020/12/17 10:02:04;;;;;;;25.75;13.45;;;9.40;55.90;;;;;;5060186;28;20017;-72
2020/12/17 10:04:30;;;;;;;24.80;13.05;;;9.50;55.90;;;;;;5046997;28;20048;-73
2020/12/17 10:06:56;;;;;;;25.20;12.73;;;9.50;55.80;;;;;;5046594;28;20052;-75
2020/12/17 10:09:22;;;;;;;28.23;14.07;;;9.50;55.70;;;;;;5046035;28;20057;-77
2020/12/17 10:11:53;;;;;;;26.63;13.60;;;9.50;55.60;;;;;;5052425;28;20075;-76
2020/12/17 10:14:19;;;;;;;28.60;14.13;;;9.50;55.50;;;;;;5041385;28;20021;-75
2020/12/17 10:16:46;;;;;;;30.77;13.75;;;9.50;55.50;;;;;;5045463;28;20075;-75
2020/12/17 10:19:13;;;;;;;28.17;13.30;;;9.50;55.60;;;;;;5057605;28;20108;-73
2020/12/17 10:21:39;;;;;;;25.42;13.43;;;9.50;55.50;;;;;;5054653;28;20031;-73
2020/12/17 10:24:06;;;;;;;29.30;14.20;;;9.50;55.50;;;;;;5052897;28;20037;-75
2020/12/17 10:26:32;;;;;;;28.38;14.15;;;9.50;55.40;;;;;;5050290;28;20363;-75
2020/12/17 10:28:59;;;;;;;26.27;13.32;;;9.50;55.40;;;;;;5054352;28;20036;-74
2020/12/17 10:31:28;;;;;;;28.65;14.18;;;9.50;55.50;;;;;;5056162;28;20090;-74
2020/12/17 10:33:55;;;;;;;32.80;16.33;;;9.50;55.60;;;;;;5065132;28;20028;-73
2020/12/17 10:36:22;;;;;;;32.53;15.73;;;9.60;55.50;;;;;;5043580;28;20064;-75
2020/12/17 10:38:48;;;;;;;27.13;13.20;;;9.50;55.30;;;;;;5052146;28;20029;-73
2020/12/17 10:41:17;;;;;;;28.83;15.05;;;9.60;55.50;;;;;;5049178;28;20478;-74
2020/12/17 10:43:42;;;;;;;32.85;16.25;;;9.60;55.50;;;;;;5051616;28;20032;-75
2020/12/17 10:46:08;;;;;;;29.02;14.70;;;9.60;55.40;;;;;;5054363;28;20029;-72
2020/12/17 10:48:34;;;;;;;35.45;15.60;;;9.60;55.40;;;;;;5049438;28;20447;-77
2020/12/17 10:50:59;;;;;;;34.58;16.55;;;9.60;55.40;;;;;;5053744;28;20473;-76
2020/12/17 10:53:25;;;;;;;31.77;15.80;;;9.60;55.50;;;;;;5054167;28;20021;-74
2020/12/17 10:55:51;;;;;;;27.70;14.43;;;9.70;55.50;;;;;;5051914;28;20071;-75
2020/12/17 10:58:16;;;;;;;35.03;17.52;;;9.70;55.50;;;;;;5055034;28;20037;-72
2020/12/17 11:00:42;;;;;;;51.40;19.65;;;9.70;55.40;;;;;;5052915;28;20025;-74
2020/12/17 11:03:09;;;;;;;27.77;14.73;;;9.70;55.30;;;;;;5057430;28;20493;-74
2020/12/17 11:05:38;;;;;;;30.83;15.57;;;9.70;55.20;;;;;;5053511;28;20028;-72
2020/12/17 11:08:04;;;;;;;31.23;16.20;;;9.70;55.10;;;;;;5053229;28;20385;-73
2020/12/17 11:10:30;;;;;;;25.08;13.60;;;9.70;55.00;;;;;;5051452;28;20021;-72
2020/12/17 11:12:56;;;;;;;25.70;13.90;;;9.70;55.10;;;;;;5052783;28;20395;-73
2020/12/17 11:15:21;;;;;;;25.88;13.82;;;9.70;55.10;;;;;;5052750;28;20029;-75
2020/12/17 11:17:47;;;;;;;31.40;15.82;;;9.70;55.10;;;;;;5048662;28;20447;-75
2020/12/17 11:20:13;;;;;;;30.63;16.50;;;9.70;55.10;;;;;;5054191;28;20025;-75
2020/12/17 11:22:40;;;;;;;32.80;15.52;;;9.70;55.00;;;;;;5059753;28;20025;-73
2020/12/17 11:25:06;;;;;;;31.50;16.25;;;9.70;55.10;;;;;;5062085;28;20041;-74
2020/12/17 11:27:31;;;;;;;30.73;14.90;;;9.70;55.10;;;;;;5047168;28;20549;-73
2020/12/17 11:29:57;;;;;;;31.48;15.73;;;9.70;55.10;;;;;;5046908;28;20068;-73
2020/12/17 11:32:23;;;;;;;33.53;17.55;;;9.70;55.10;;;;;;5054153;28;20057;-72
2020/12/17 11:34:50;;;;;;;34.58;16.70;;;9.80;55.20;;;;;;5053360;28;20108;-74
2020/12/17 11:37:16;;;;;;;26.50;14.90;;;9.80;55.10;;;;;;5047540;28;20074;-74
2020/12/17 11:39:42;;;;;;;26.15;14.05;;;9.80;55.10;;;;;;5048638;28;20467;-74
2020/12/17 11:42:08;;;;;;;25.90;13.75;;;9.90;55.20;;;;;;5052493;28;20059;-74
2020/12/17 11:44:33;;;;;;;24.63;13.38;;;9.90;55.00;;;;;;5052247;28;20492;-75
2020/12/17 11:46:59;;;;;;;25.02;12.93;;;9.90;55.00;;;;;;5046689;28;20071;-72
2020/12/17 11:49:25;;;;;;;23.30;11.50;;;10.00;55.00;;;;;;5056754;28;20063;-73
2020/12/17 11:51:52;;;;;;;24.77;11.68;;;10.00;54.60;;;;;;5054581;28;20484;-73
2020/12/17 11:54:19;;;;;;;26.50;13.95;;;10.00;54.50;;;;;;5066228;28;20028;-74
2020/12/17 11:56:46;;;;;;;20.98;11.65;;;10.00;54.30;;;;;;5045838;28;20394;-72
2020/12/17 11:59:12;;;;;;;32.30;14.27;;;10.10;54.50;;;;;;5052924;28;20029;-72
2020/12/17 12:01:41;;;;;;;32.45;14.98;;;10.10;54.20;;;;;;5057607;28;20096;-74
2020/12/17 12:04:07;;;;;;;21.40;11.98;;;10.10;54.10;;;;;;5051839;28;20025;-73
2020/12/17 12:06:33;;;;;;;27.38;12.75;;;10.10;54.30;;;;;;5062538;28;20025;-72
2020/12/17 12:08:59;;;;;;;25.77;13.18;;;10.10;54.40;;;;;;5052490;28;20028;-74
2020/12/17 12:11:25;;;;;;;19.42;11.27;;;10.10;54.20;;;;;;5049428;28;20041;-75
2020/12/17 12:13:51;;;;;;;21.00;11.68;;;10.10;54.20;;;;;;5053158;28;20029;-73
2020/12/17 12:16:16;;;;;;;24.95;12.35;;;10.10;53.90;;;;;;5048587;28;20494;-70
2020/12/17 12:18:42;;;;;;;19.88;11.30;;;10.10;54.10;;;;;;5044614;28;20025;-70
2020/12/17 12:21:14;;;;;;;26.77;12.95;;;10.10;54.20;;;;;;5052307;28;20029;-71
2020/12/17 12:23:44;;;;;;;22.92;12.43;;;10.10;54.00;;;;;;5042107;28;20025;-71
2020/12/17 12:26:11;;;;;;;27.30;13.68;;;10.20;54.00;;;;;;5048608;28;20552;-70
2020/12/17 12:28:40;;;;;;;23.60;12.50;;;10.20;53.90;;;;;;5031721;28;20087;-70
2020/12/17 12:31:06;;;;;;;23.55;13.75;;;10.20;53.90;;;;;;5037477;28;20108;-70
2020/12/17 12:33:32;;;;;;;28.95;13.63;;;10.20;53.90;;;;;;5041871;28;20024;-70
2020/12/17 12:35:58;;;;;;;30.88;14.75;;;10.20;53.90;;;;;;5056737;28;20610;-70
2020/12/17 12:38:24;;;;;;;31.95;15.10;;;10.20;53.70;;;;;;5053218;28;20096;-70
2020/12/17 12:40:50;;;;;;;23.90;13.02;;;10.20;53.60;;;;;;5067179;28;20109;-70
2020/12/17 12:43:15;;;;;;;24.70;12.48;;;10.10;53.60;;;;;;5060658;28;20025;-70
2020/12/17 12:45:41;;;;;;;24.33;13.13;;;10.20;53.80;;;;;;5052629;28;20027;-70